sensor_id;sensor_type;location;lat;lon;timestamp;temperature;humidity
41922;DHT22;27609;51.002;5.354;2022-07-06T00:01:49;13.90;99.90
41922;DHT22;27609;51.002;5.354;2022-07-06T00:04:17;13.90;99.90
41922;DHT22;27609;51.002;5.354;2022-07-06T00:06:43;13.80;99.90
41922;DHT22;27609;51.002;5.354;2022-07-06T00:09:09;13.80;99.90
41922;DHT22;27609;51.002;5.354;2022-07-06T00:11:35;13.80;99.90
41922;DHT22;27609;51.002;5.354;2022-07-06T00:14:01;13.80;99.90
41922;DHT22;27609;51.002;5.354;2022-07-06T00:16:30;13.70;99.90
41922;DHT22;27609;51.002;5.354;2022-07-06T00:18:56;13.70;99.90
41922;DHT22;27609;51.002;5.354;2022-07-06T00:21:22;13.60;99.90
41922;DHT22;27609;51.002;5.354;2022-07-06T00:23:48;13.60;99.90
41922;DHT22;27609;51.002;5.354;2022-07-06T00:26:14;13.50;99.90
41922;DHT22;27609;51.002;5.354;2022-07-06T00:28:40;13.50;99.90
41922;DHT22;27609;51.002;5.354;2022-07-06T00:31:06;13.40;99.90
41922;DHT22;27609;51.002;5.354;2022-07-06T00:33:32;13.30;99.90
41922;DHT22;27609;51.002;5.354;2022-07-06T00:35:58;13.30;99.90
41922;DHT22;27609;51.002;5.354;2022-07-06T00:38:24;13.30;99.90
41922;DHT22;27609;51.002;5.354;2022-07-06T00:40:50;13.30;99.90
41922;DHT22;27609;51.002;5.354;2022-07-06T00:43:16;13.30;99.90
41922;DHT22;27609;51.002;5.354;2022-07-06T00:45:42;13.20;99.90
41922;DHT22;27609;51.002;5.354;2022-07-06T00:48:09;13.20;99.90
41922;DHT22;27609;51.002;5.354;2022-07-06T00:50:37;13.30;99.90
41922;DHT22;27609;51.002;5.354;2022-07-06T00:53:05;12.80;99.90
41922;DHT22;27609;51.002;5.354;2022-07-06T00:55:35;13.10;99.90
41922;DHT22;27609;51.002;5.354;2022-07-06T00:58:01;13.10;99.90
41922;DHT22;27609;51.002;5.354;2022-07-06T01:00:28;13.00;99.90
41922;DHT22;27609;51.002;5.354;2022-07-06T01:02:54;13.00;99.90
41922;DHT22;27609;51.002;5.354;2022-07-06T01:05:21;12.80;99.90
41922;DHT22;27609;51.002;5.354;2022-07-06T01:07:48;12.50;99.90
41922;DHT22;27609;51.002;5.354;2022-07-06T01:10:17;12.90;99.90
41922;DHT22;27609;51.002;5.354;2022-07-06T01:12:44;12.90;99.90
41922;DHT22;27609;51.002;5.354;2022-07-06T01:15:22;12.90;99.90
41922;DHT22;27609;51.002;5.354;2022-07-06T01:17:49;12.80;99.90
41922;DHT22;27609;51.002;5.354;2022-07-06T01:20:17;12.80;99.90
41922;DHT22;27609;51.002;5.354;2022-07-06T01:22:44;12.80;99.90
41922;DHT22;27609;51.002;5.354;2022-07-06T01:25:10;12.90;99.90
41922;DHT22;27609;51.002;5.354;2022-07-06T01:27:36;13.00;99.90
41922;DHT22;27609;51.002;5.354;2022-07-06T01:30:07;12.80;99.90
41922;DHT22;27609;51.002;5.354;2022-07-06T01:32:34;12.70;99.90
41922;DHT22;27609;51.002;5.354;2022-07-06T01:35:00;12.70;99.90
41922;DHT22;27609;51.002;5.354;2022-07-06T01:37:26;12.60;99.90
41922;DHT22;27609;51.002;5.354;2022-07-06T01:39:52;12.60;99.90
41922;DHT22;27609;51.002;5.354;2022-07-06T01:42:18;12.60;99.90
41922;DHT22;27609;51.002;5.354;2022-07-06T01:44:44;12.60;99.90
41922;DHT22;27609;51.002;5.354;2022-07-06T01:47:10;12.60;99.90
41922;DHT22;27609;51.002;5.354;2022-07-06T01:49:36;12.60;99.90
41922;DHT22;27609;51.002;5.354;2022-07-06T01:52:02;12.60;99.90
41922;DHT22;27609;51.002;5.354;2022-07-06T01:54:29;12.50;99.90
41922;DHT22;27609;51.002;5.354;2022-07-06T01:56:54;12.80;99.90
41922;DHT22;27609;51.002;5.354;2022-07-06T01:59:20;12.60;99.90
41922;DHT22;27609;51.002;5.354;2022-07-06T02:01:46;12.50;99.90
41922;DHT22;27609;51.002;5.354;2022-07-06T02:04:12;12.40;99.90
41922;DHT22;27609;51.002;5.354;2022-07-06T02:06:38;12.40;99.90
41922;DHT22;27609;51.002;5.354;2022-07-06T02:09:04;12.40;99.90
41922;DHT22;27609;51.002;5.354;2022-07-06T02:11:32;12.40;99.90
41922;DHT22;27609;51.002;5.354;2022-07-06T02:13:57;12.30;99.90
41922;DHT22;27609;51.002;5.354;2022-07-06T02:16:23;12.30;99.90
41922;DHT22;27609;51.002;5.354;2022-07-06T02:18:49;12.20;99.90
41922;DHT22;27609;51.002;5.354;2022-07-06T02:21:15;12.20;99.90
41922;DHT22;27609;51.002;5.354;2022-07-06T02:23:41;12.20;99.90
41922;DHT22;27609;51.002;5.354;2022-07-06T02:26:07;12.20;99.90
41922;DHT22;27609;51.002;5.354;2022-07-06T02:28:34;12.10;99.90
41922;DHT22;27609;51.002;5.354;2022-07-06T02:31:00;11.50;99.90
41922;DHT22;27609;51.002;5.354;2022-07-06T02:33:26;12.00;99.90
41922;DHT22;27609;51.002;5.354;2022-07-06T02:35:51;12.00;99.90
41922;DHT22;27609;51.002;5.354;2022-07-06T02:38:17;11.90;99.90
41922;DHT22;27609;51.002;5.354;2022-07-06T02:40:43;11.90;99.90
41922;DHT22;27609;51.002;5.354;2022-07-06T02:43:09;11.80;99.90
41922;DHT22;27609;51.002;5.354;2022-07-06T02:45:35;11.80;99.90
41922;DHT22;27609;51.002;5.354;2022-07-06T02:48:01;11.80;99.90
41922;DHT22;27609;51.002;5.354;2022-07-06T02:50:27;11.80;99.90
41922;DHT22;27609;51.002;5.354;2022-07-06T02:52:53;11.40;99.90
41922;DHT22;27609;51.002;5.354;2022-07-06T02:55:20;11.70;99.90
41922;DHT22;27609;51.002;5.354;2022-07-06T02:57:46;11.70;99.90
41922;DHT22;27609;51.002;5.354;2022-07-06T03:00:12;11.70;99.90
41922;DHT22;27609;51.002;5.354;2022-07-06T03:02:38;11.70;99.90
41922;DHT22;27609;51.002;5.354;2022-07-06T03:05:05;11.70;99.90
41922;DHT22;27609;51.002;5.354;2022-07-06T03:07:30;11.70;99.90
41922;DHT22;27609;51.002;5.354;2022-07-06T03:09:56;11.40;99.90
41922;DHT22;27609;51.002;5.354;2022-07-06T03:12:22;11.70;99.90
41922;DHT22;27609;51.002;5.354;2022-07-06T03:14:48;11.70;99.90
41922;DHT22;27609;51.002;5.354;2022-07-06T03:17:14;11.70;99.90
41922;DHT22;27609;51.002;5.354;2022-07-06T03:19:39;11.60;99.90
41922;DHT22;27609;51.002;5.354;2022-07-06T03:22:05;11.60;99.90
41922;DHT22;27609;51.002;5.354;2022-07-06T03:24:31;11.60;99.90
41922;DHT22;27609;51.002;5.354;2022-07-06T03:26:57;11.60;99.90
41922;DHT22;27609;51.002;5.354;2022-07-06T03:29:23;11.50;99.90
41922;DHT22;27609;51.002;5.354;2022-07-06T03:31:49;11.50;99.90
41922;DHT22;27609;51.002;5.354;2022-07-06T03:34:14;11.50;99.90
41922;DHT22;27609;51.002;5.354;2022-07-06T03:36:40;11.50;99.90
41922;DHT22;27609;51.002;5.354;2022-07-06T03:39:06;11.40;99.90
41922;DHT22;27609;51.002;5.354;2022-07-06T03:41:32;11.50;99.90
41922;DHT22;27609;51.002;5.354;2022-07-06T03:43:58;11.50;99.90
41922;DHT22;27609;51.002;5.354;2022-07-06T03:46:28;11.30;99.90
41922;DHT22;27609;51.002;5.354;2022-07-06T03:48:55;11.50;99.90
41922;DHT22;27609;51.002;5.354;2022-07-06T03:51:20;11.50;99.90
41922;DHT22;27609;51.002;5.354;2022-07-06T03:53:46;11.40;99.90
41922;DHT22;27609;51.002;5.354;2022-07-06T03:56:12;11.40;99.90
41922;DHT22;27609;51.002;5.354;2022-07-06T03:58:53;11.40;99.90
41922;DHT22;27609;51.002;5.354;2022-07-06T04:01:19;11.50;99.90
41922;DHT22;27609;51.002;5.354;2022-07-06T04:03:45;11.50;99.90
41922;DHT22;27609;51.002;5.354;2022-07-06T04:06:11;11.60;99.90
41922;DHT22;27609;51.002;5.354;2022-07-06T04:08:37;11.50;99.90
41922;DHT22;27609;51.002;5.354;2022-07-06T04:11:02;11.70;99.90
41922;DHT22;27609;51.002;5.354;2022-07-06T04:13:28;11.70;99.90
41922;DHT22;27609;51.002;5.354;2022-07-06T04:15:54;11.70;99.90
41922;DHT22;27609;51.002;5.354;2022-07-06T04:18:20;11.80;99.90
41922;DHT22;27609;51.002;5.354;2022-07-06T04:20:46;11.80;99.90
41922;DHT22;27609;51.002;5.354;2022-07-06T04:23:12;11.60;99.90
41922;DHT22;27609;51.002;5.354;2022-07-06T04:25:41;11.50;99.90
41922;DHT22;27609;51.002;5.354;2022-07-06T04:28:07;11.50;99.90
41922;DHT22;27609;51.002;5.354;2022-07-06T04:30:33;11.70;99.90
41922;DHT22;27609;51.002;5.354;2022-07-06T04:32:58;11.80;99.90
41922;DHT22;27609;51.002;5.354;2022-07-06T04:35:24;11.80;99.90
41922;DHT22;27609;51.002;5.354;2022-07-06T04:37:50;11.90;99.90
41922;DHT22;27609;51.002;5.354;2022-07-06T04:40:16;12.10;99.90
41922;DHT22;27609;51.002;5.354;2022-07-06T04:42:42;12.20;99.90
41922;DHT22;27609;51.002;5.354;2022-07-06T04:45:08;12.10;99.90
41922;DHT22;27609;51.002;5.354;2022-07-06T04:47:34;11.60;99.90
41922;DHT22;27609;51.002;5.354;2022-07-06T04:50:01;11.80;99.90
41922;DHT22;27609;51.002;5.354;2022-07-06T04:52:27;11.90;99.90
41922;DHT22;27609;51.002;5.354;2022-07-06T04:54:54;12.10;99.90
41922;DHT22;27609;51.002;5.354;2022-07-06T04:57:20;12.40;99.90
41922;DHT22;27609;51.002;5.354;2022-07-06T04:59:46;12.60;99.90
41922;DHT22;27609;51.002;5.354;2022-07-06T05:02:12;12.80;99.90
41922;DHT22;27609;51.002;5.354;2022-07-06T05:04:38;12.90;99.90
41922;DHT22;27609;51.002;5.354;2022-07-06T05:07:03;13.10;99.90
41922;DHT22;27609;51.002;5.354;2022-07-06T05:09:29;13.20;99.90
41922;DHT22;27609;51.002;5.354;2022-07-06T05:11:55;13.40;99.90
41922;DHT22;27609;51.002;5.354;2022-07-06T05:14:21;13.30;99.90
41922;DHT22;27609;51.002;5.354;2022-07-06T05:16:47;13.10;99.90
41922;DHT22;27609;51.002;5.354;2022-07-06T05:19:13;13.40;99.90
41922;DHT22;27609;51.002;5.354;2022-07-06T05:21:39;13.80;99.90
41922;DHT22;27609;51.002;5.354;2022-07-06T05:24:05;14.10;99.90
41922;DHT22;27609;51.002;5.354;2022-07-06T05:26:30;14.80;99.90
41922;DHT22;27609;51.002;5.354;2022-07-06T05:28:56;14.70;99.90
41922;DHT22;27609;51.002;5.354;2022-07-06T05:31:22;15.00;99.90
41922;DHT22;27609;51.002;5.354;2022-07-06T05:33:48;15.30;99.90
41922;DHT22;27609;51.002;5.354;2022-07-06T05:36:14;15.50;99.90
41922;DHT22;27609;51.002;5.354;2022-07-06T05:38:40;16.00;99.90
41922;DHT22;27609;51.002;5.354;2022-07-06T05:41:05;16.60;99.90
41922;DHT22;27609;51.002;5.354;2022-07-06T05:43:31;17.10;99.90
41922;DHT22;27609;51.002;5.354;2022-07-06T05:45:57;17.50;99.90
41922;DHT22;27609;51.002;5.354;2022-07-06T05:48:23;18.10;99.90
41922;DHT22;27609;51.002;5.354;2022-07-06T05:51:08;18.30;99.90
41922;DHT22;27609;51.002;5.354;2022-07-06T05:53:34;18.70;99.90
41922;DHT22;27609;51.002;5.354;2022-07-06T05:56:00;18.90;99.90
41922;DHT22;27609;51.002;5.354;2022-07-06T05:58:25;19.20;99.90
41922;DHT22;27609;51.002;5.354;2022-07-06T06:00:51;19.30;99.90
41922;DHT22;27609;51.002;5.354;2022-07-06T06:03:17;19.20;99.90
41922;DHT22;27609;51.002;5.354;2022-07-06T06:05:43;19.20;99.90
41922;DHT22;27609;51.002;5.354;2022-07-06T06:08:09;19.00;99.90
41922;DHT22;27609;51.002;5.354;2022-07-06T06:10:34;18.90;99.90
41922;DHT22;27609;51.002;5.354;2022-07-06T06:13:00;18.80;99.90
41922;DHT22;27609;51.002;5.354;2022-07-06T06:15:26;18.70;99.90
41922;DHT22;27609;51.002;5.354;2022-07-06T06:17:52;18.90;99.90
41922;DHT22;27609;51.002;5.354;2022-07-06T06:20:18;19.10;99.90
41922;DHT22;27609;51.002;5.354;2022-07-06T06:22:48;19.10;99.90
41922;DHT22;27609;51.002;5.354;2022-07-06T06:25:14;19.30;99.90
41922;DHT22;27609;51.002;5.354;2022-07-06T06:27:40;19.50;99.90
41922;DHT22;27609;51.002;5.354;2022-07-06T06:30:09;19.50;99.90
41922;DHT22;27609;51.002;5.354;2022-07-06T06:32:35;19.60;99.90
41922;DHT22;27609;51.002;5.354;2022-07-06T06:35:01;19.60;99.90
41922;DHT22;27609;51.002;5.354;2022-07-06T06:37:26;19.80;99.90
41922;DHT22;27609;51.002;5.354;2022-07-06T06:39:52;20.20;99.90
41922;DHT22;27609;51.002;5.354;2022-07-06T06:42:18;20.70;99.90
41922;DHT22;27609;51.002;5.354;2022-07-06T06:44:44;21.00;99.90
41922;DHT22;27609;51.002;5.354;2022-07-06T06:47:09;20.70;99.90
41922;DHT22;27609;51.002;5.354;2022-07-06T06:49:35;20.90;99.90
41922;DHT22;27609;51.002;5.354;2022-07-06T06:52:01;21.40;99.90
41922;DHT22;27609;51.002;5.354;2022-07-06T06:54:26;21.30;99.90
41922;DHT22;27609;51.002;5.354;2022-07-06T06:56:52;20.30;99.90
41922;DHT22;27609;51.002;5.354;2022-07-06T06:59:18;19.90;99.90
41922;DHT22;27609;51.002;5.354;2022-07-06T07:01:44;21.00;99.90
41922;DHT22;27609;51.002;5.354;2022-07-06T07:04:10;22.20;99.90
41922;DHT22;27609;51.002;5.354;2022-07-06T07:06:35;22.90;99.90
41922;DHT22;27609;51.002;5.354;2022-07-06T07:09:01;23.00;99.90
41922;DHT22;27609;51.002;5.354;2022-07-06T07:11:27;23.20;99.90
41922;DHT22;27609;51.002;5.354;2022-07-06T07:13:53;23.60;99.00
41922;DHT22;27609;51.002;5.354;2022-07-06T07:16:18;24.10;98.50
41922;DHT22;27609;51.002;5.354;2022-07-06T07:18:44;24.80;98.00
41922;DHT22;27609;51.002;5.354;2022-07-06T07:21:10;25.60;95.00
41922;DHT22;27609;51.002;5.354;2022-07-06T07:23:36;25.60;94.90
41922;DHT22;27609;51.002;5.354;2022-07-06T07:26:02;26.20;93.40
41922;DHT22;27609;51.002;5.354;2022-07-06T07:28:28;26.40;92.80
41922;DHT22;27609;51.002;5.354;2022-07-06T07:30:53;27.10;91.90
41922;DHT22;27609;51.002;5.354;2022-07-06T07:33:19;28.50;90.60
41922;DHT22;27609;51.002;5.354;2022-07-06T07:35:45;29.30;88.30
41922;DHT22;27609;51.002;5.354;2022-07-06T07:38:11;28.60;83.20
41922;DHT22;27609;51.002;5.354;2022-07-06T07:40:36;27.30;87.50
41922;DHT22;27609;51.002;5.354;2022-07-06T07:43:02;27.50;88.60
41922;DHT22;27609;51.002;5.354;2022-07-06T07:45:28;27.50;87.10
41922;DHT22;27609;51.002;5.354;2022-07-06T07:47:54;27.60;88.50
41922;DHT22;27609;51.002;5.354;2022-07-06T07:50:20;27.70;83.70
41922;DHT22;27609;51.002;5.354;2022-07-06T07:52:46;27.80;83.40
41922;DHT22;27609;51.002;5.354;2022-07-06T07:55:12;28.40;84.20
41922;DHT22;27609;51.002;5.354;2022-07-06T07:57:38;27.60;86.60
41922;DHT22;27609;51.002;5.354;2022-07-06T08:00:04;26.90;85.90
41922;DHT22;27609;51.002;5.354;2022-07-06T08:02:30;27.30;84.40
41922;DHT22;27609;51.002;5.354;2022-07-06T08:04:56;26.40;84.30
41922;DHT22;27609;51.002;5.354;2022-07-06T08:07:21;27.00;82.70
41922;DHT22;27609;51.002;5.354;2022-07-06T08:09:47;27.30;80.50
41922;DHT22;27609;51.002;5.354;2022-07-06T08:12:13;28.80;79.20
41922;DHT22;27609;51.002;5.354;2022-07-06T08:14:39;29.30;77.60
41922;DHT22;27609;51.002;5.354;2022-07-06T08:17:05;28.80;81.30
41922;DHT22;27609;51.002;5.354;2022-07-06T08:19:30;29.50;78.80
41922;DHT22;27609;51.002;5.354;2022-07-06T08:21:57;30.80;75.80
41922;DHT22;27609;51.002;5.354;2022-07-06T08:24:23;32.10;74.10
41922;DHT22;27609;51.002;5.354;2022-07-06T08:26:48;31.60;72.20
41922;DHT22;27609;51.002;5.354;2022-07-06T08:29:15;32.10;69.30
41922;DHT22;27609;51.002;5.354;2022-07-06T08:31:41;32.30;71.90
41922;DHT22;27609;51.002;5.354;2022-07-06T08:34:07;32.80;70.20
41922;DHT22;27609;51.002;5.354;2022-07-06T08:36:32;33.40;67.40
41922;DHT22;27609;51.002;5.354;2022-07-06T08:39:04;33.80;67.40
41922;DHT22;27609;51.002;5.354;2022-07-06T08:41:30;33.30;66.60
41922;DHT22;27609;51.002;5.354;2022-07-06T08:43:56;32.00;65.90
41922;DHT22;27609;51.002;5.354;2022-07-06T08:46:22;32.20;67.60
41922;DHT22;27609;51.002;5.354;2022-07-06T08:48:51;30.50;66.80
41922;DHT22;27609;51.002;5.354;2022-07-06T08:51:17;30.60;67.50
41922;DHT22;27609;51.002;5.354;2022-07-06T08:53:44;32.00;67.40
41922;DHT22;27609;51.002;5.354;2022-07-06T08:56:11;32.70;63.10
41922;DHT22;27609;51.002;5.354;2022-07-06T08:58:37;34.30;63.20
41922;DHT22;27609;51.002;5.354;2022-07-06T09:01:06;33.90;63.40
41922;DHT22;27609;51.002;5.354;2022-07-06T09:03:34;33.10;61.90
41922;DHT22;27609;51.002;5.354;2022-07-06T09:06:02;33.10;63.20
41922;DHT22;27609;51.002;5.354;2022-07-06T09:08:31;32.20;65.90
41922;DHT22;27609;51.002;5.354;2022-07-06T09:10:57;31.60;66.60
41922;DHT22;27609;51.002;5.354;2022-07-06T09:13:22;32.70;64.80
41922;DHT22;27609;51.002;5.354;2022-07-06T09:15:48;32.90;61.00
41922;DHT22;27609;51.002;5.354;2022-07-06T09:18:14;32.60;64.20
41922;DHT22;27609;51.002;5.354;2022-07-06T09:20:41;31.60;65.00
41922;DHT22;27609;51.002;5.354;2022-07-06T09:23:07;32.10;66.80
41922;DHT22;27609;51.002;5.354;2022-07-06T09:25:34;33.20;63.60
41922;DHT22;27609;51.002;5.354;2022-07-06T09:28:01;34.20;63.10
41922;DHT22;27609;51.002;5.354;2022-07-06T09:30:28;35.00;62.90
41922;DHT22;27609;51.002;5.354;2022-07-06T09:32:57;32.50;62.70
41922;DHT22;27609;51.002;5.354;2022-07-06T09:40:36;28.90;68.20
41922;DHT22;27609;51.002;5.354;2022-07-06T09:43:16;28.60;66.90
41922;DHT22;27609;51.002;5.354;2022-07-06T09:48:14;28.00;71.60
41922;DHT22;27609;51.002;5.354;2022-07-06T09:50:42;27.20;74.00
41922;DHT22;27609;51.002;5.354;2022-07-06T09:53:10;27.80;71.60
41922;DHT22;27609;51.002;5.354;2022-07-06T09:55:36;27.20;70.60
41922;DHT22;27609;51.002;5.354;2022-07-06T09:58:03;27.50;71.40
41922;DHT22;27609;51.002;5.354;2022-07-06T10:00:29;27.50;69.90
41922;DHT22;27609;51.002;5.354;2022-07-06T10:02:55;28.50;74.00
41922;DHT22;27609;51.002;5.354;2022-07-06T10:05:22;29.40;71.90
41922;DHT22;27609;51.002;5.354;2022-07-06T10:07:58;31.40;67.20
41922;DHT22;27609;51.002;5.354;2022-07-06T10:10:28;30.70;65.00
41922;DHT22;27609;51.002;5.354;2022-07-06T10:12:58;29.90;67.10
41922;DHT22;27609;51.002;5.354;2022-07-06T10:15:29;28.60;68.50
41922;DHT22;27609;51.002;5.354;2022-07-06T10:17:59;28.30;70.40
41922;DHT22;27609;51.002;5.354;2022-07-06T10:20:29;27.40;72.20
41922;DHT22;27609;51.002;5.354;2022-07-06T10:22:59;26.40;71.90
41922;DHT22;27609;51.002;5.354;2022-07-06T10:25:26;26.50;74.90
41922;DHT22;27609;51.002;5.354;2022-07-06T10:27:53;27.60;73.60
41922;DHT22;27609;51.002;5.354;2022-07-06T10:30:20;27.50;73.00
41922;DHT22;27609;51.002;5.354;2022-07-06T10:32:50;26.60;73.90
41922;DHT22;27609;51.002;5.354;2022-07-06T10:35:18;26.90;73.60
41922;DHT22;27609;51.002;5.354;2022-07-06T10:37:45;27.00;74.10
41922;DHT22;27609;51.002;5.354;2022-07-06T10:40:14;27.70;75.10
41922;DHT22;27609;51.002;5.354;2022-07-06T10:43:00;28.60;72.20
41922;DHT22;27609;51.002;5.354;2022-07-06T10:50:48;29.00;70.20
41922;DHT22;27609;51.002;5.354;2022-07-06T10:53:16;29.20;70.90
41922;DHT22;27609;51.002;5.354;2022-07-06T10:55:47;30.20;69.60
41922;DHT22;27609;51.002;5.354;2022-07-06T11:01:03;30.30;69.50
41922;DHT22;27609;51.002;5.354;2022-07-06T11:06:14;30.40;71.60
41922;DHT22;27609;51.002;5.354;2022-07-06T11:24:13;28.60;73.30
41922;DHT22;27609;51.002;5.354;2022-07-06T11:26:44;28.30;73.10
41922;DHT22;27609;51.002;5.354;2022-07-06T11:29:12;27.90;76.40
41922;DHT22;27609;51.002;5.354;2022-07-06T11:31:40;28.60;71.50
41922;DHT22;27609;51.002;5.354;2022-07-06T11:34:08;28.80;72.00
41922;DHT22;27609;51.002;5.354;2022-07-06T11:36:34;29.90;71.80
41922;DHT22;27609;51.002;5.354;2022-07-06T11:39:00;31.40;69.90
41922;DHT22;27609;51.002;5.354;2022-07-06T11:41:27;32.30;65.20
41922;DHT22;27609;51.002;5.354;2022-07-06T11:43:52;32.10;65.50
41922;DHT22;27609;51.002;5.354;2022-07-06T11:46:32;31.20;68.70
41922;DHT22;27609;51.002;5.354;2022-07-06T11:49:04;32.60;68.10
41922;DHT22;27609;51.002;5.354;2022-07-06T11:51:33;31.50;64.60
41922;DHT22;27609;51.002;5.354;2022-07-06T11:54:01;33.10;66.30
41922;DHT22;27609;51.002;5.354;2022-07-06T11:56:28;34.20;62.70
41922;DHT22;27609;51.002;5.354;2022-07-06T11:58:55;33.70;62.40
41922;DHT22;27609;51.002;5.354;2022-07-06T12:01:23;33.40;64.10
41922;DHT22;27609;51.002;5.354;2022-07-06T12:03:49;33.50;66.90
41922;DHT22;27609;51.002;5.354;2022-07-06T12:06:18;33.10;64.40
41922;DHT22;27609;51.002;5.354;2022-07-06T12:08:46;32.70;64.70
41922;DHT22;27609;51.002;5.354;2022-07-06T12:11:39;33.40;63.10
41922;DHT22;27609;51.002;5.354;2022-07-06T12:14:18;32.80;63.30
41922;DHT22;27609;51.002;5.354;2022-07-06T12:16:46;31.40;63.70
41922;DHT22;27609;51.002;5.354;2022-07-06T12:19:12;27.70;69.00
41922;DHT22;27609;51.002;5.354;2022-07-06T12:21:46;26.30;73.60
41922;DHT22;27609;51.002;5.354;2022-07-06T12:24:23;27.10;74.00
41922;DHT22;27609;51.002;5.354;2022-07-06T12:26:49;28.50;73.20
41922;DHT22;27609;51.002;5.354;2022-07-06T12:29:16;29.50;70.30
41922;DHT22;27609;51.002;5.354;2022-07-06T12:31:47;30.00;68.70
41922;DHT22;27609;51.002;5.354;2022-07-06T12:34:16;31.60;67.20
41922;DHT22;27609;51.002;5.354;2022-07-06T12:36:47;33.60;62.40
41922;DHT22;27609;51.002;5.354;2022-07-06T12:39:14;33.70;62.00
41922;DHT22;27609;51.002;5.354;2022-07-06T12:41:51;31.80;65.30
41922;DHT22;27609;51.002;5.354;2022-07-06T12:44:21;31.30;68.40
41922;DHT22;27609;51.002;5.354;2022-07-06T12:46:48;29.70;67.80
41922;DHT22;27609;51.002;5.354;2022-07-06T12:49:18;28.50;69.50
41922;DHT22;27609;51.002;5.354;2022-07-06T12:54:48;30.80;66.40
41922;DHT22;27609;51.002;5.354;2022-07-06T12:57:22;31.80;65.60
41922;DHT22;27609;51.002;5.354;2022-07-06T12:59:58;31.20;67.00
41922;DHT22;27609;51.002;5.354;2022-07-06T13:02:31;31.20;66.90
41922;DHT22;27609;51.002;5.354;2022-07-06T13:04:59;31.60;65.70
41922;DHT22;27609;51.002;5.354;2022-07-06T13:07:27;31.50;66.50
41922;DHT22;27609;51.002;5.354;2022-07-06T13:09:55;32.20;63.50
41922;DHT22;27609;51.002;5.354;2022-07-06T13:12:21;32.80;66.30
41922;DHT22;27609;51.002;5.354;2022-07-06T13:14:48;33.20;64.00
41922;DHT22;27609;51.002;5.354;2022-07-06T13:17:14;33.00;64.60
41922;DHT22;27609;51.002;5.354;2022-07-06T13:19:40;30.50;67.40
41922;DHT22;27609;51.002;5.354;2022-07-06T13:22:06;30.20;67.20
41922;DHT22;27609;51.002;5.354;2022-07-06T13:24:34;30.30;65.70
41922;DHT22;27609;51.002;5.354;2022-07-06T13:27:00;28.70;68.70
41922;DHT22;27609;51.002;5.354;2022-07-06T13:29:27;28.10;70.10
41922;DHT22;27609;51.002;5.354;2022-07-06T13:31:53;28.20;69.90
41922;DHT22;27609;51.002;5.354;2022-07-06T13:34:19;29.80;72.10
41922;DHT22;27609;51.002;5.354;2022-07-06T13:36:45;30.50;69.00
41922;DHT22;27609;51.002;5.354;2022-07-06T13:39:11;31.70;67.00
41922;DHT22;27609;51.002;5.354;2022-07-06T13:41:37;32.90;64.90
41922;DHT22;27609;51.002;5.354;2022-07-06T13:44:03;30.50;67.10
41922;DHT22;27609;51.002;5.354;2022-07-06T13:46:30;29.60;69.00
41922;DHT22;27609;51.002;5.354;2022-07-06T13:48:57;28.70;71.50
41922;DHT22;27609;51.002;5.354;2022-07-06T13:51:26;30.10;70.00
41922;DHT22;27609;51.002;5.354;2022-07-06T13:53:52;29.60;68.10
41922;DHT22;27609;51.002;5.354;2022-07-06T13:56:18;28.60;69.70
41922;DHT22;27609;51.002;5.354;2022-07-06T13:58:44;28.40;72.30
41922;DHT22;27609;51.002;5.354;2022-07-06T14:01:11;29.00;69.70
41922;DHT22;27609;51.002;5.354;2022-07-06T14:03:37;28.10;71.00
41922;DHT22;27609;51.002;5.354;2022-07-06T14:06:07;28.30;72.70
41922;DHT22;27609;51.002;5.354;2022-07-06T14:08:36;28.00;73.70
41922;DHT22;27609;51.002;5.354;2022-07-06T14:11:06;27.60;72.20
41922;DHT22;27609;51.002;5.354;2022-07-06T14:13:33;27.20;73.70
41922;DHT22;27609;51.002;5.354;2022-07-06T14:16:00;27.60;74.80
41922;DHT22;27609;51.002;5.354;2022-07-06T14:18:27;28.00;74.50
41922;DHT22;27609;51.002;5.354;2022-07-06T14:20:53;28.50;73.70
41922;DHT22;27609;51.002;5.354;2022-07-06T14:23:20;28.10;73.60
41922;DHT22;27609;51.002;5.354;2022-07-06T14:25:46;28.10;72.00
41922;DHT22;27609;51.002;5.354;2022-07-06T14:28:13;28.00;77.20
41922;DHT22;27609;51.002;5.354;2022-07-06T14:30:39;27.40;76.20
41922;DHT22;27609;51.002;5.354;2022-07-06T14:33:07;27.00;76.90
41922;DHT22;27609;51.002;5.354;2022-07-06T14:35:44;27.20;76.20
41922;DHT22;27609;51.002;5.354;2022-07-06T14:38:14;27.20;76.20
41922;DHT22;27609;51.002;5.354;2022-07-06T14:40:40;27.10;76.20
41922;DHT22;27609;51.002;5.354;2022-07-06T14:43:06;27.10;75.90
41922;DHT22;27609;51.002;5.354;2022-07-06T14:45:32;27.40;74.60
41922;DHT22;27609;51.002;5.354;2022-07-06T14:47:58;27.60;75.90
41922;DHT22;27609;51.002;5.354;2022-07-06T14:50:24;27.70;76.30
41922;DHT22;27609;51.002;5.354;2022-07-06T14:52:50;27.80;73.60
41922;DHT22;27609;51.002;5.354;2022-07-06T14:55:17;27.70;73.60
41922;DHT22;27609;51.002;5.354;2022-07-06T14:57:43;27.60;75.80
41922;DHT22;27609;51.002;5.354;2022-07-06T15:00:09;27.80;73.60
41922;DHT22;27609;51.002;5.354;2022-07-06T15:02:35;27.50;77.10
41922;DHT22;27609;51.002;5.354;2022-07-06T15:05:01;27.40;73.70
41922;DHT22;27609;51.002;5.354;2022-07-06T15:07:28;26.20;75.90
41922;DHT22;27609;51.002;5.354;2022-07-06T15:09:55;25.40;77.90
41922;DHT22;27609;51.002;5.354;2022-07-06T15:12:21;25.90;80.00
41922;DHT22;27609;51.002;5.354;2022-07-06T15:14:47;26.20;78.10
41922;DHT22;27609;51.002;5.354;2022-07-06T15:17:13;26.60;78.20
41922;DHT22;27609;51.002;5.354;2022-07-06T15:19:39;27.10;79.10
41922;DHT22;27609;51.002;5.354;2022-07-06T15:22:06;27.20;79.50
41922;DHT22;27609;51.002;5.354;2022-07-06T15:24:32;27.60;77.30
41922;DHT22;27609;51.002;5.354;2022-07-06T15:26:58;27.60;75.90
41922;DHT22;27609;51.002;5.354;2022-07-06T15:29:25;28.20;78.70
41922;DHT22;27609;51.002;5.354;2022-07-06T15:31:51;27.80;75.10
41922;DHT22;27609;51.002;5.354;2022-07-06T15:34:17;27.80;76.70
41922;DHT22;27609;51.002;5.354;2022-07-06T15:36:44;27.50;75.50
41922;DHT22;27609;51.002;5.354;2022-07-06T15:39:10;27.60;77.30
41922;DHT22;27609;51.002;5.354;2022-07-06T15:41:36;27.80;77.90
41922;DHT22;27609;51.002;5.354;2022-07-06T15:44:02;27.90;78.10
41922;DHT22;27609;51.002;5.354;2022-07-06T15:46:29;27.90;77.90
41922;DHT22;27609;51.002;5.354;2022-07-06T15:48:55;27.20;76.00
41922;DHT22;27609;51.002;5.354;2022-07-06T15:51:21;27.10;78.60
41922;DHT22;27609;51.002;5.354;2022-07-06T15:53:46;27.00;78.30
41922;DHT22;27609;51.002;5.354;2022-07-06T15:56:14;27.20;79.80
41922;DHT22;27609;51.002;5.354;2022-07-06T15:58:41;26.60;79.50
41922;DHT22;27609;51.002;5.354;2022-07-06T16:01:07;26.80;78.50
41922;DHT22;27609;51.002;5.354;2022-07-06T16:03:33;26.70;78.90
41922;DHT22;27609;51.002;5.354;2022-07-06T16:06:00;26.80;77.80